Flight Track Log - Related Links

Times and Time Zones

All times are in EDT time to prevent confusion due to time zone crossing. See the EGF3421 flight status page for this flight to view local times or setup timezone preferences in your user account.

Time Position Orientation Groundspeed Altitude Reporting Facility
EDT Latitude Longitude Course Direction KTS MPH feet Rate Location/Type
Sun 06:20:05 PM 38.7833 -77.0333 218° Southwest 203 234 2,400  Level Potomac TRACON
Sun 06:21:00 PM 38.6397 -77.2770 218° Southwest  Level FlightAware Approximate
Sun 06:21:05 PM 38.7333 -77.0667 207° Southwest 260 299 5,000  Level Potomac TRACON
Sun 06:22:00 PM 38.5621 -77.3546 218° Southwest  Level FlightAware Approximate
Sun 06:22:05 PM 38.6833 -77.1333 226° Southwest 270 311 7,700  Level Potomac TRACON
Sun 06:23:00 PM 38.4897 -77.4395 225° Southwest  Level FlightAware Approximate
Sun 06:23:05 PM 38.6333 -77.2167 232° Southwest 274 315 10,300  Level Potomac TRACON
Sun 06:23:49 PM 38.5931 -77.2678 225° Southwest 293 337 11,300 1,642 Climbing Washington Center
Sun 06:24:00 PM 38.4203 -77.5287 225° Southwest  Level FlightAware Approximate
Sun 06:24:51 PM 38.5442 -77.3464 232° Southwest 317 365 13,200  Level Washington Center
Sun 06:25:00 PM 38.3381 -77.5953 218° Southwest  Level FlightAware Approximate
Sun 06:25:52 PM 38.4864 -77.4350 230° Southwest 317 365 15,100  Level Washington Center
Sun 06:26:51 PM 38.4267 -77.5236 229° Southwest 328 377 16,800 1,714 Climbing Washington Center
Sun 06:27:51 PM 38.3586 -77.6067 224° Southwest 328 377 18,500 1,835 Climbing Washington Center
Sun 06:28:52 PM 38.2803 -77.6733 214° Southwest 334 384 20,500 1,765 Climbing Washington Center
Sun 06:29:50 PM 38.2019 -77.7400 214° Southwest 339 390 22,000 763 Climbing Washington Center
Sun 06:30:50 PM 38.1172 -77.8114 214° Southwest 353 406 22,000  Level Washington Center
Sun 06:31:51 PM 38.0197 -77.8903 213° Southwest 376 433 22,000  Level Washington Center
Sun 06:32:51 PM 37.9264 -77.9717 215° Southwest 388 447 22,000  Level Washington Center
Sun 06:33:52 PM 37.8311 -78.0500 213° Southwest 408 470 22,000  Level Washington Center
Sun 06:34:52 PM 37.7375 -78.1311 214° Southwest 408 470 22,000  Level Washington Center
Sun 06:35:50 PM 37.6483 -78.2094 215° Southwest 400 460 22,000  Level Washington Center
Sun 06:36:51 PM 37.5569 -78.2847 213° Southwest 400 460 22,000  Level Washington Center
Sun 06:37:52 PM 37.4633 -78.3653 214° Southwest 406 467 22,000  Level Washington Center
Sun 06:38:52 PM 37.3697 -78.4431 213° Southwest 406 467 22,000  Level Washington Center
Sun 06:39:50 PM 37.2739 -78.5203 213° Southwest 406 467 22,000  Level Washington Center
Sun 06:40:51 PM 37.1847 -78.5925 213° Southwest 419 482 22,000  Level Washington Center
Sun 06:41:52 PM 37.0886 -78.6747 214° Southwest 419 482 22,000  Level Washington Center
Sun 06:42:52 PM 36.9906 -78.7564 214° Southwest 424 488 22,000  Level Washington Center
Sun 06:43:51 PM 36.8811 -78.7961 196° South 418 481 22,000 -1,160 Level Washington Center
Sun 06:44:51 PM 36.7633 -78.8275 192° South 421 484 19,700 -2,182 Descending Washington Center
Sun 06:45:52 PM 36.6792 -78.8525 193° South 402 463 17,600 -2,824 Descending Washington Center
Sun 06:46:50 PM 36.5592 -78.8917 195° South 388 447 14,100 -3,297 Descending Washington Center
Sun 06:47:23 PM 36.5025 -78.9072 192° South 370 426 12,600 -2,250 Descending Washington Center
Sun 06:48:18 PM 36.4206 -78.9294 192° South 328 377 10,800 -1,568 Descending Washington Center
Sun 06:48:51 PM 36.3872 -78.9203 168° South 300 345 10,300 -1,404 Descending Washington Center
Sun 06:49:52 PM 36.3139 -78.8606 147° Southeast 282 325 8,600 -1,160 Descending Washington Center
Sun 06:50:50 PM 36.2631 -78.8119 142° Southeast 271 312 8,000 -472 Descending Washington Center
Sun 06:51:21 PM 36.2325 -78.7850 145° Southeast 231 266 7,900 -689 Descending Washington Center
Sun 06:51:51 PM 36.2078 -78.7661 148° Southeast 251 289 7,300 -1,400 Descending Washington Center
Sun 06:52:21 PM 36.1772 -78.7417 147° Southeast 230 265 6,500 -1,377 Descending Washington Center
Sun 06:52:52 PM 36.1528 -78.7150 139° Southeast 236 272 5,900 -1,258 Descending Washington Center
Sun 06:53:23 PM 36.1222 -78.6906 147° Southeast 228 262 5,200 -1,304 Descending Washington Center
Sun 06:54:24 PM 36.0733 -78.6425 142° Southeast 220 253 3,900 -984 Descending Washington Center
Sun 06:55:25 PM 36.0258 -78.6278 166° South 184 212 3,200 -492 Descending Washington Center
Sun 06:56:26 PM 35.9914 -78.6622 219° Southwest 146 168 2,900 -295 Descending Washington Center

Login

Don't have an account? Register now (free) for customized features, flight alerts, and more!